Data for 05/24/2016

Time Sea-Level Adjusted Pressure Absolute Pressure Temperature Relative Humidity Dew Point   
(mb) (inHg) (mb) (inHg) (C) (F) (%) (C) (F)
00:05 1015 29.97 845 24.95 4.3 39.7 86 2.2 36
00:10 1015 29.97 845 24.95 4.1 39.3 87 2.1 35.8
00:15 1015 29.97 845 24.95 3.9 39.1 88 2.1 35.8
00:20 1015 29.97 845 24.95 3.9 39 89 2.2 35.9
00:25 1015 29.97 845 24.95 4 39.2 88 2.2 35.9
00:30 1015 29.97 845 24.95 4.1 39.3 87 2.1 35.8
00:35 1015 29.97 845 24.95 4.1 39.4 85 1.9 35.4
00:40 1015 29.97 845 24.95 4.1 39.4 85 1.7 35.1
00:45 1015 29.97 845 24.95 4.1 39.3 85 1.8 35.3
00:50 1015 29.97 845 24.95 4.1 39.4 86 1.9 35.4
00:55 1015 29.97 845 24.95 4.1 39.4 86 2 35.7
01:00 1015 29.97 845 24.95 4 39.3 87 2.1 35.9
01:05 1015 29.97 845 24.95 4 39.3 88 2.2 36
01:10 1015 29.97 845 24.95 4 39.3 88 2.2 36
01:15 1015 29.97 845 24.95 4.1 39.4 89 2.4 36.4
01:20 1015 29.97 844 24.92 4.1 39.5 89 2.5 36.4
01:25 1015 29.97 844 24.92 4.1 39.4 89 2.5 36.5
01:30 1015 29.97 844 24.92 4.1 39.3 89 2.5 36.5
01:35 1015 29.97 844 24.92 4 39.2 90 2.5 36.5
01:40 1015 29.97 844 24.92 4 39.1 90 2.5 36.4
01:45 1015 29.97 844 24.92 4 39.1 90 2.5 36.5
01:50 1015 29.97 844 24.92 3.9 39.1 90 2.4 36.4
01:55 1015 29.97 844 24.92 3.9 39 90 2.3 36.2
02:00 1015 29.97 844 24.92 3.9 39 90 2.3 36.2
02:05 1015 29.97 844 24.92 3.9 39 90 2.3 36.2
02:10 1015 29.97 844 24.92 3.9 39 90 2.4 36.3
02:15 1015 29.97 844 24.92 3.9 39.1 90 2.4 36.4
02:20 1015 29.97 844 24.92 3.9 39 90 2.4 36.3
02:25 1015 29.97 844 24.92 3.8 38.9 90 2.3 36.2
02:30 1015 29.97 844 24.92 3.8 38.9 90 2.3 36.2
02:35 1015 29.97 844 24.92 3.8 38.9 90 2.4 36.2
02:40 1015 29.97 844 24.92 3.9 39 91 2.5 36.6
02:45 1015 29.97 844 24.92 3.9 39 91 2.5 36.5
02:50 1015 29.97 844 24.92 3.8 38.9 90 2.4 36.4
02:55 1015 29.97 844 24.92 3.9 39 91 2.6 36.6
03:00 1015 29.97 844 24.92 3.9 39 91 2.5 36.6
03:05 1015 29.97 844 24.92 3.9 39 91 2.6 36.6
03:10 1015 29.97 844 24.92 3.8 38.9 91 2.5 36.4
03:15 1015 29.97 844 24.92 3.8 38.8 91 2.5 36.5
03:20 1015 29.97 844 24.92 3.8 38.8 91 2.5 36.5
03:25 1015 29.97 844 24.92 3.8 38.9 91 2.5 36.6
03:30 1015 29.97 844 24.92 3.8 38.9 91 2.6 36.6
03:35 1015 29.97 844 24.92 3.9 38.9 92 2.6 36.7
03:40 1015 29.97 844 24.92 3.9 39.1 92 2.7 36.9
03:45 1015 29.97 844 24.92 3.9 39.1 91 2.7 36.8
03:50 1015 29.97 844 24.92 3.9 39 91 2.6 36.8
03:55 1015 29.97 844 24.92 3.9 38.9 92 2.6 36.7
04:00 1015 29.97 844 24.92 3.8 38.9 92 2.6 36.6
04:05 1015 29.97 844 24.92 3.8 38.9 92 2.6 36.7
04:10 1015 29.97 844 24.92 3.8 38.9 92 2.6 36.6
04:15 1015 29.97 844 24.92 3.8 38.9 92 2.6 36.6
04:20 1015 29.97 844 24.92 3.9 39 92 2.6 36.7
04:25 1015 29.97 844 24.92 3.9 39.1 92 2.7 36.8
04:30 1015 29.97 844 24.92 3.9 39.1 92 2.7 36.8
04:35 1015 29.97 844 24.92 4 39.1 91 2.7 36.8
04:40 1015 29.97 844 24.92 3.9 39 91 2.6 36.7
04:45 1015 29.97 844 24.92 3.9 38.9 91 2.6 36.7
04:50 1015 29.97 844 24.92 3.9 38.9 92 2.6 36.7
04:55 1015 29.97 844 24.92 3.9 39 92 2.6 36.7
05:00 1015 29.97 844 24.92 3.9 39 92 2.7 36.8
05:05 1015 29.97 844 24.92 3.9 39 91 2.6 36.6
05:10 1015 29.97 844 24.92 3.9 39 91 2.5 36.5
05:15 1015 29.97 844 24.92 3.9 39.1 90 2.5 36.5
05:20 1015 29.97 844 24.92 3.9 39.1 90 2.5 36.4
05:25 1015 29.97 844 24.92 4 39.1 90 2.4 36.4
05:30 1015 29.97 844 24.92 4 39.2 89 2.3 36.2
05:35 1015 29.97 844 24.92 4.1 39.4 89 2.4 36.4
05:40 1015 29.97 844 24.92 4.2 39.6 89 2.5 36.5
05:45 1015 29.97 844 24.92 4.2 39.6 89 2.6 36.6
05:50 1015 29.97 844 24.92 4.3 39.7 88 2.4 36.4
05:55 1015 29.97 844 24.92 4.4 39.9 88 2.5 36.6
06:00 1015 29.97 844 24.92 4.4 39.9 86 2.3 36.1
06:05 1015 29.97 844 24.92 4.5 40.1 85 2.2 36
06:10 1015 29.97 844 24.92 4.6 40.3 85 2.4 36.3
06:15 1015 29.97 844 24.92 4.8 40.6 86 2.7 36.9
06:20 1015 29.97 844 24.92 4.8 40.7 86 2.6 36.7
06:25 1015 29.97 844 24.92 4.8 40.7 86 2.7 36.9
06:30 1015 29.97 844 24.92 4.7 40.5 87 2.7 36.9
06:35 1015 29.97 844 24.92 4.7 40.4 87 2.7 36.8
06:40 1015 29.97 844 24.92 4.7 40.5 87 2.7 36.8
06:45 1015 29.97 844 24.92 4.9 40.7 86 2.8 37
06:50 1015 29.97 844 24.92 4.9 40.8 87 2.9 37.2
06:55 1015 29.97 844 24.92 5 40.9 86 2.9 37.2
07:00 1015 29.97 845 24.95 5 41.1 86 2.9 37.2
07:05 1015 29.97 845 24.95 5.1 41.2 85 2.7 36.9
07:10 1015 29.97 845 24.95 5.1 41.2 85 2.8 37.1
07:15 1015 29.97 845 24.95 5.3 41.5 84 2.8 37
07:20 1015 29.97 845 24.95 5.3 41.6 83 2.7 36.8
07:25 1015 29.97 845 24.95 5.4 41.8 81 2.5 36.4
07:30 1015 29.97 845 24.95 5.7 42.3 79 2.3 36.1
07:35 1015 29.97 845 24.95 6 42.8 76 2 35.7
07:40 1016 30 845 24.95 6.2 43.1 77 2.5 36.5
07:45 1016 30 845 24.95 6.3 43.4 76 2.3 36.2
07:50 1016 30 845 24.95 6.4 43.5 76 2.4 36.3
07:55 1016 30 845 24.95 6.5 43.8 76 2.5 36.6
08:00 1016 30 845 24.95 6.7 44 75 2.6 36.8
08:05 1016 30 845 24.95 6.8 44.3 73 2.3 36.1
08:10 1015 29.97 845 24.95 6.9 44.4 73 2.3 36.2
08:15 1016 30 845 24.95 7.1 44.7 73 2.6 36.7
08:20 1016 30 845 24.95 7.1 44.8 74 2.7 36.9
08:25 1016 30 845 24.95 7.3 45.1 70 2.2 36
08:30 1016 30 845 24.95 7.4 45.3 70 2.2 36
08:35 1016 30 845 24.95 7.3 45.2 70 2.2 35.9
08:40 1016 30 845 24.95 7.2 44.9 72 2.5 36.5
08:45 1016 30 845 24.95 7.3 45.2 71 2.5 36.6
08:50 1016 30 845 24.95 7.8 46 69 2.5 36.4
08:55 1016 30 845 24.95 7.6 45.7 69 2.3 36.2
09:00 1016 30 845 24.95 7.4 45.3 70 2.4 36.3
09:05 1016 30 845 24.95 7.3 45.1 68 1.8 35.3
09:10 1016 30 845 24.95 7.4 45.2 68 1.9 35.4
09:15 1016 30 845 24.95 7.1 44.9 68 1.7 35.1
09:20 1016 30 845 24.95 7.4 45.2 70 2.3 36.1
09:25 1016 30 845 24.95 7.3 45.1 72 2.5 36.5
09:30 1016 30 845 24.95 7.5 45.5 70 2.4 36.4
09:35 1016 30 845 24.95 7.8 46 67 2.1 35.8
09:40 1016 30 845 24.95 8.1 46.6 66 2.2 35.9
09:45 1016 30 845 24.95 8.1 46.6 67 2.4 36.3
09:50 1016 30 845 24.95 8.5 47.3 65 2.4 36.2
09:55 1016 30 845 24.95 8.5 47.3 64 2.1 35.8
10:00 1016 30 845 24.95 9 48.2 63 2.4 36.3
10:05 1016 30 845 24.95 8.5 47.3 69 3.1 37.6
10:10 1016 30 845 24.95 8.4 47.2 65 2.2 35.9
10:15 1016 30 845 24.95 8.8 47.8 61 1.8 35.2
10:20 1016 30 845 24.95 8.8 47.9 64 2.3 36.2
10:25 1016 30 845 24.95 9.2 48.5 64 2.6 36.8
10:30 1016 30 845 24.95 9.3 48.7 61 2.2 35.9
10:35 1016 30 845 24.95 9.7 49.5 61 2.6 36.6
10:40 1016 30 845 24.95 9.1 48.4 61 2 35.6
10:45 1016 30 845 24.95 9.7 49.5 59 2.1 35.8
10:50 1016 30 845 24.95 9.6 49.3 60 2.3 36.2
10:55 1016 30 845 24.95 9.9 49.7 58 2.1 35.7
11:00 1015 29.97 845 24.95 9.5 49.2 60 2.1 35.8
11:05 1015 29.97 845 24.95 9.6 49.3 59 2.1 35.8
11:10 1015 29.97 845 24.95 9.8 49.6 59 2.3 36.1
11:15 1015 29.97 845 24.95 9.5 49 61 2.4 36.3
11:20 1015 29.97 845 24.95 9.8 49.6 59 2.2 36
11:25 1015 29.97 845 24.95 10.4 50.7 57 2.3 36.2
11:30 1015 29.97 845 24.95 10.8 51.4 56 2.4 36.4
11:35 1015 29.97 845 24.95 11 51.8 57 2.8 37.1
11:40 1015 29.97 844 24.92 9.8 49.6 61 2.6 36.6
11:45 1015 29.97 844 24.92 10 49.9 57 1.9 35.5
11:50 1015 29.97 844 24.92 10.2 50.4 58 2.3 36.1
11:55 1015 29.97 844 24.92 10.5 50.9 55 1.8 35.3
12:00 1015 29.97 844 24.92 11 51.9 53 1.9 35.5
12:05 1015 29.97 844 24.92 11.9 53.4 51 2.2 35.9
12:10 1015 29.97 844 24.92 12 53.6 52 2.6 36.6
12:15 1015 29.97 844 24.92 11.4 52.5 55 2.8 37
12:20 1015 29.97 844 24.92 10.4 50.7 55 1.8 35.3
12:25 1015 29.97 844 24.92 11.3 52.3 53 2.2 36
12:30 1015 29.97 844 24.92 11 51.7 57 2.8 37.1
12:35 1015 29.97 844 24.92 10.3 50.5 57 2.1 35.8
12:40 1015 29.97 844 24.92 10.3 50.5 59 2.6 36.8
12:45 1015 29.97 844 24.92 10.5 50.9 55 2 35.6
12:50 1015 29.97 844 24.92 10.3 50.6 58 2.5 36.4
12:55 1015 29.97 844 24.92 10.7 51.2 54 1.8 35.3
13:00 1015 29.97 844 24.92 11 51.7 53 1.9 35.5
13:05 1015 29.97 844 24.92 11.1 52.1 54 2.1 35.8
13:10 1015 29.97 844 24.92 11.4 52.5 51 1.6 34.8
13:15 1015 29.97 844 24.92 11.3 52.3 54 2.3 36.1
13:20 1015 29.97 844 24.92 11.4 52.6 53 2.2 35.9
13:25 1015 29.97 844 24.92 11.4 52.6 52 1.9 35.4
13:30 1015 29.97 844 24.92 11.7 53 51 1.9 35.3
13:35 1015 29.97 844 24.92 11.1 52.1 56 2.7 36.8
13:40 1015 29.97 844 24.92 10.6 51.1 54 1.8 35.2
13:45 1015 29.97 844 24.92 11.2 52.1 53 1.9 35.4
13:50 1015 29.97 844 24.92 11.7 53 53 2.5 36.5
13:55 1015 29.97 844 24.92 11.1 51.9 54 2.2 35.9
14:00 1015 29.97 844 24.92 11.6 52.9 51 1.7 35.1
14:05 1015 29.97 844 24.92 11.9 53.5 53 2.6 36.7
14:10 1015 29.97 844 24.92 11.2 52.1 53 2 35.6
14:15 1015 29.97 844 24.92 10.7 51.3 54 1.9 35.4
14:20 1015 29.97 844 24.92 11.5 52.6 50 1.5 34.7
14:25 1015 29.97 844 24.92 11.3 52.3 53 2.2 36
14:30 1015 29.97 844 24.92 11.1 52 53 1.9 35.5
14:35 1015 29.97 844 24.92 10.9 51.5 54 1.9 35.5
14:40 1015 29.97 844 24.92 11.6 52.9 50 1.7 35.1
14:45 1015 29.97 844 24.92 12.3 54.1 49 1.9 35.3
14:50 1015 29.97 844 24.92 11.9 53.4 50 2 35.6
14:55 1015 29.97 844 24.92 12.3 54.2 48 1.7 35
15:00 1015 29.97 844 24.92 12.9 55.2 48 2.1 35.9
15:05 1015 29.97 844 24.92 12.9 55.2 47 1.8 35.3
15:10 1015 29.97 844 24.92 13 55.4 47 2 35.6
15:15 1014 29.94 844 24.92 12.8 55 48 2 35.6
15:20 1014 29.94 844 24.92 12.4 54.3 47 1.4 34.5
15:25 1014 29.94 844 24.92 12.3 54.1 47 1.4 34.5
15:30 1014 29.94 844 24.92 12 53.5 48 1.5 34.6
15:35 1014 29.94 844 24.92 12.4 54.2 46 1.2 34.1
15:40 1014 29.94 844 24.92 12.2 53.9 48 1.7 35
15:45 1014 29.94 844 24.92 11.7 53.1 48 1.3 34.3
15:50 1014 29.94 844 24.92 11.5 52.7 48 0.9 33.6
15:55 1014 29.94 844 24.92 12.6 54.7 46 1.3 34.3
16:00 1014 29.94 844 24.92 12.4 54.3 44 0.6 33
16:05 1014 29.94 844 24.92 12.6 54.7 45 1 33.7
16:10 1014 29.94 844 24.92 12.8 55 45 1.2 34.2
16:15 1014 29.94 844 24.92 12.7 54.9 45 1.1 34
16:20 1014 29.94 844 24.92 12.6 54.7 45 1 33.8
16:25 1014 29.94 844 24.92 12.5 54.5 44 0.7 33.3
16:30 1014 29.94 844 24.92 12.5 54.5 45 0.9 33.6
16:35 1014 29.94 844 24.92 12.8 55 44 0.9 33.6
16:40 1014 29.94 843 24.89 13.2 55.8 44 1.5 34.6
16:45 1014 29.94 843 24.89 13.1 55.5 47 2 35.7
16:50 1014 29.94 843 24.89 12.1 53.8 48 1.5 34.7
16:55 1014 29.94 844 24.92 12 53.6 48 1.4 34.4
17:00 1014 29.94 844 24.92 12.6 54.7 46 1.3 34.4
17:05 1014 29.94 844 24.92 12.6 54.6 47 1.5 34.7
17:10 1014 29.94 843 24.89 12.6 54.8 45 1 33.7
17:15 1014 29.94 843 24.89 13.1 55.5 44 1.1 34
17:20 1014 29.94 843 24.89 13.4 56 43 1.1 34
17:25 1014 29.94 843 24.89 13.4 56.1 44 1.5 34.6
17:30 1014 29.94 843 24.89 12.8 55.1 46 1.5 34.7
17:35 1014 29.94 843 24.89 12.3 54.2 47 1.4 34.5
17:40 1014 29.94 843 24.89 12.3 54.1 46 1.2 34.1
17:45 1014 29.94 843 24.89 12.5 54.5 46 1.2 34.1
17:50 1014 29.94 843 24.89 12.8 55 45 1.1 34.1
17:55 1014 29.94 843 24.89 13 55.4 45 1.3 34.3
18:00 1014 29.94 843 24.89 12.7 54.8 45 1.1 33.9
18:05 1014 29.94 843 24.89 13.1 55.6 44 1.2 34.1
18:10 1014 29.94 843 24.89 13.3 56 45 1.8 35.2
18:15 1014 29.94 843 24.89 12.8 55 47 1.9 35.4
18:20 1014 29.94 843 24.89 12.4 54.3 48 1.8 35.2
18:25 1014 29.94 843 24.89 12.1 53.8 49 1.7 35
18:30 1014 29.94 843 24.89 12.1 53.8 49 1.9 35.4
18:35 1014 29.94 843 24.89 12.1 53.9 50 2 35.6
18:40 1014 29.94 843 24.89 12.1 53.7 50 2.1 35.9
18:45 1014 29.94 843 24.89 12.1 53.7 51 2.2 35.9
18:50 1014 29.94 843 24.89 12.1 53.7 52 2.4 36.4
18:55 1014 29.94 843 24.89 12 53.7 52 2.4 36.3
19:00 1014 29.94 844 24.92 11.9 53.4 52 2.4 36.4
19:05 1014 29.94 844 24.92 11.7 53.1 53 2.6 36.6
19:10 1014 29.94 844 24.92 11.4 52.5 55 2.7 36.9
19:15 1014 29.94 844 24.92 11.2 52.1 55 2.5 36.6
19:20 1014 29.94 844 24.92 11 51.9 55 2.3 36.1
19:25 1014 29.94 844 24.92 11 51.7 55 2.4 36.3
19:30 1014 29.94 844 24.92 10.8 51.5 58 2.9 37.1
19:35 1014 29.94 844 24.92 10.8 51.4 56 2.5 36.5
19:40 1014 29.94 844 24.92 10.8 51.4 57 2.7 36.9
19:45 1014 29.94 844 24.92 10.8 51.4 57 2.7 36.8
19:50 1014 29.94 844 24.92 10.8 51.5 57 2.7 36.9
19:55 1014 29.94 844 24.92 10.7 51.3 58 2.8 37.1
20:00 1015 29.97 844 24.92 10.5 51 62 3.6 38.4
20:05 1015 29.97 844 24.92 10 50.1 63 3.3 38
20:10 1015 29.97 844 24.92 9.6 49.3 65 3.3 38
20:15 1015 29.97 844 24.92 9.2 48.5 67 3.4 38.1
20:20 1015 29.97 844 24.92 8.9 48 68 3.3 37.9
20:25 1015 29.97 844 24.92 8.7 47.7 69 3.3 37.9
20:30 1015 29.97 844 24.92 8.6 47.5 68 3.1 37.5
20:35 1015 29.97 844 24.92 8.6 47.4 69 3.1 37.6
20:40 1015 29.97 844 24.92 8.4 47.1 69 3.1 37.6
20:45 1015 29.97 844 24.92 8.2 46.8 70 3.1 37.6
20:50 1015 29.97 844 24.92 8.3 46.9 70 3.1 37.5
20:55 1015 29.97 845 24.95 8 46.5 71 3 37.4
21:00 1015 29.97 845 24.95 8 46.3 71 3 37.4
21:05 1015 29.97 845 24.95 8.1 46.6 70 3 37.4
21:10 1016 30 845 24.95 8.3 47 70 3.2 37.7
21:15 1016 30 845 24.95 8.5 47.4 70 3.4 38.1
21:20 1016 30 845 24.95 8.5 47.3 72 3.7 38.6
21:25 1016 30 845 24.95 8.4 47.1 71 3.5 38.3
21:30 1016 30 845 24.95 8.4 47.1 72 3.7 38.6
21:35 1016 30 845 24.95 8.3 46.9 73 3.7 38.6
21:40 1016 30 845 24.95 8.2 46.8 73 3.6 38.5
21:45 1016 30 845 24.95 8.1 46.6 73 3.7 38.6
21:50 1016 30 845 24.95 8 46.3 73 3.5 38.3
21:55 1016 30 845 24.95 7.9 46.3 73 3.3 38
22:00 1016 30 845 24.95 7.9 46.2 72 3.2 37.7
22:05 1016 30 845 24.95 8 46.4 72 3.2 37.8
22:10 1016 30 845 24.95 7.9 46.3 73 3.4 38.1
22:15 1016 30 845 24.95 8 46.3 74 3.6 38.5
22:20 1016 30 845 24.95 7.9 46.2 75 3.7 38.6
22:25 1016 30 845 24.95 7.9 46.2 74 3.6 38.5
22:30 1016 30 845 24.95 8 46.3 74 3.5 38.4
22:35 1016 30 845 24.95 7.9 46.3 73 3.5 38.2
22:40 1016 30 845 24.95 7.8 46.1 73 3.4 38.1
22:45 1016 30 845 24.95 7.7 45.8 72 3 37.5
22:50 1016 30 845 24.95 7.5 45.5 72 2.8 37
22:55 1016 30 845 24.95 7.4 45.2 72 2.7 36.9
23:00 1016 30 845 24.95 7.3 45.1 72 2.6 36.7
23:05 1016 30 845 24.95 7.2 44.9 72 2.6 36.6
23:10 1016 30 845 24.95 7.1 44.8 73 2.5 36.5
23:15 1016 30 845 24.95 7.1 44.7 73 2.5 36.5
23:20 1016 30 845 24.95 7 44.7 73 2.5 36.5
23:25 1016 30 845 24.95 6.9 44.5 73 2.5 36.6
23:30 1016 30 845 24.95 6.9 44.4 74 2.5 36.5
23:35 1016 30 845 24.95 6.8 44.2 75 2.7 36.8
23:40 1016 30 845 24.95 6.6 43.9 76 2.7 36.9
23:45 1016 30 845 24.95 6.5 43.8 76 2.6 36.7
23:50 1016 30 845 24.95 6.5 43.7 76 2.6 36.7
23:55 1016 30 845 24.95 6.4 43.5 77 2.6 36.8
24:00 1016 30 845 24.95 6.2 43.1 80 2.9 37.3